Latest Coastal Weather Observations for Christmas Island

IDW60701

Issued at 12:21 am WST Wednesday 4 May 2016 (issued every 10 minutes, with the page automatically refreshed every 10 minutes)

About coastal observations | Map of coastal stations | Coastal observations for WA | Marine services | Other Formats
Station Details ID: 200790 Name: CHRISTMAS ISLAND AERO Lat: -10.45 Lon: 105.69 Height: 261.0 m
Data from the previous 72 hours. | See also: Recent months at Christmas Island
Date/Time
WST
Temp

°C
Wind Pressure Rain
since 9am
mm
Weather Cloud Vis
km
Sea
Height
m
Swell
Dir
 
Speed
knots
Gust
knots
hPa Trend Height
m
Period
s
Dir
04/12:00am 26.2 ESE 6 8 1013.1 - 0.2 - Partly cloudy 5 - - - -
 
Date/Time
WST
Temp

°C
Wind Pressure Rain
since 9am
mm
Weather Cloud Vis
km
Sea
Height
m
Swell
Dir
 
Speed
knots
Gust
knots
hPa Trend Height
m
Period
s
Dir
03/11:51pm 26.2 ESE 6 7 1013.2 - 0.2 - Partly cloudy 6 - - - -
03/11:30pm 26.2 ESE 5 8 1013.3 - 0.2 - Partly cloudy 7 - - - -
03/11:00pm 26.4 ESE 5 7 1013.7 - 0.2 - Partly cloudy 8 - - - -
03/10:30pm 26.1 ESE 5 7 1013.7 - 0.2 - Partly cloudy 10 - - - -
03/10:00pm 26.0 ESE 5 6 1012.2 - 0.2 - Cloudy 10 - - - -
03/09:30pm 26.0 ESE 4 5 1013.7 - 0.2 - Partly cloudy 10 - - - -
03/09:00pm 26.0 ESE 4 6 1013.6 - 0.2 - Partly cloudy 10 - - - -
03/08:33pm 26.0 ESE 5 6 1013.2 - 0.2 - Partly cloudy 10 - - - -
03/08:30pm 26.0 SE 4 6 1013.1 - 0.2 - Partly cloudy 10 - - - -
03/08:00pm 25.8 ESE 5 6 1012.7 - 0.2 - Partly cloudy 10 - - - -
03/07:45pm 25.9 ESE 5 7 1012.5 - 0.2 - Partly cloudy 10 - - - -
03/07:30pm 26.0 ESE 6 8 1012.4 - 0.2 - Partly cloudy 10 - - - -
03/07:00pm 26.2 ENE 5 6 1010.2 - 0.2 - Cloudy 10 - - - -
03/06:30pm 26.3 ENE 3 5 1011.6 - 0.2 - Partly cloudy 10 - - - -
03/06:00pm 26.3 ENE 5 7 1011.0 - 0.2 - Cloudy 10 - - - -
03/05:30pm 26.0 ENE 5 7 1010.7 - 0.2 - Partly cloudy 10 - - - -
03/05:01pm 26.3 ENE 5 7 1010.3 - 0.2 - Partly cloudy 10 - - - -
03/05:00pm 26.2 ENE 5 7 1010.3 - 0.2 - Partly cloudy 10 - - - -
03/04:30pm 26.3 ENE 5 6 1010.0 - 0.2 - Partly cloudy 10 - - - -
03/04:13pm 26.5 NE 3 5 1010.0 - 0.2 - Partly cloudy 10 - - - -
03/04:06pm 26.4 NE 3 5 1010.1 - 0.2 - Partly cloudy 10 - - - -
03/04:00pm 26.4 NE 2 4 1008.6 - 0.2 - Mostly clear 10 - - - -
03/03:30pm 26.1 NE 5 6 1010.5 - 0.2 - Partly cloudy 10 - - - -
03/03:16pm 26.4 E 6 8 1010.5 - 0.2 - Partly cloudy 10 - - - -
03/03:00pm 26.7 E 5 6 1010.7 - 0.2 - Partly cloudy 10 - - - -
03/02:30pm 26.9 E 4 5 1011.3 - 0.2 - Partly cloudy 10 - - - -
03/02:23pm 26.9 E 4 5 1011.4 - 0.2 - Partly cloudy 10 - - - -
03/02:00pm 26.9 ESE 5 8 1011.5 - 0.2 - Partly cloudy 10 - - - -
03/01:30pm 27.3 E 6 8 1012.1 - 0.2 - Partly cloudy 10 - - - -
03/01:23pm 27.5 E 6 8 1012.3 - 0.2 - Partly cloudy 10 - - - -
03/01:00pm 27.5 ENE 6 8 1010.9 - 0.0 - Partly cloudy 10 - - - -
03/12:30pm 27.8 E 8 10 1013.3 - 0.0 - Partly cloudy 10 - - - -
03/12:00pm 27.9 ENE 8 10 1013.6 - 0.0 - Partly cloudy 10 - - - -
03/11:58am 28.0 ENE 8 10 1013.6 - 0.0 - Partly cloudy 10 - - - -
03/11:30am 27.8 E 8 12 1013.9 - 0.0 - Partly cloudy 10 - - - -
03/11:10am 27.5 E 9 12 1013.9 - 0.0 - Cloudy 10 - - - -
03/11:00am 27.8 E 9 13 1013.9 - 0.0 - Partly cloudy 10 - - - -
03/10:37am 26.8 E 9 16 1014.0 - 0.0 - Partly cloudy 10 - - - -
03/10:30am 26.8 E 11 16 1014.0 - 0.0 - Partly cloudy 10 - - - -
03/10:00am 26.1 ESE 9 12 1012.0 - 33.0 - Cloudy 10 - - - -
03/09:30am 25.8 ESE 6 8 1013.6 - 33.0 - Partly cloudy 8 - - - -
03/09:22am 25.5 SE 6 8 1013.6 - 33.0 - Partly cloudy 8 - - - -
03/09:07am 24.6 SE 5 7 1013.5 - 33.0 - Partly cloudy 10 - - - -
03/09:00am 24.4 SE 4 5 1013.4 - 33.0 - Partly cloudy 8 - - - -
03/08:54am 24.4 ESE 5 9 1013.4 - 33.0 - Partly cloudy 6 - - - -
03/08:53am 24.4 ESE 6 9 1013.4 - 33.0 - Partly cloudy 7 - - - -
03/08:30am 24.5 ESE 6 8 1013.4 - 32.8 - Partly cloudy 6 - - - -
03/08:12am 24.7 E 5 10 1013.1 - 32.8 - Partly cloudy 6 - - - -
03/08:10am 24.7 ESE 4 10 1013.1 - 32.8 - Partly cloudy 7 - - - -
03/08:00am 23.8 SE 3 6 1013.0 - 32.6 - Partly cloudy 6 - - - -
03/07:30am 24.5 ENE 9 14 1012.8 - 26.2 - Partly cloudy 2 - - - -
03/07:17am 24.8 SSE 5 9 1012.6 - 21.4 - Partly cloudy 6 - - - -
03/07:01am 24.7 SE 5 8 1012.2 - 20.8 - Partly cloudy 10 - - - -
03/07:00am 24.7 SE 5 11 1010.5 - 20.8 - Cloudy 10 - - - -
03/06:31am 25.5 ESE 9 15 1011.8 - 11.2 - Partly cloudy 4 - - - -
03/06:30am 25.6 ESE 9 15 1011.7 - 10.2 - Partly cloudy 7 - - - -
03/06:00am 26.1 ESE 8 11 1011.4 - 8.0 - Partly cloudy 10 - - - -
03/05:30am 26.2 ESE 10 13 1011.0 - 8.0 - Partly cloudy 10 - - - -
03/05:00am 26.0 ESE 9 13 1011.1 - 8.0 - Partly cloudy 10 - - - -
03/04:30am 25.7 ESE 10 15 1011.0 - 8.0 - Partly cloudy 10 - - - -
03/04:00am 25.8 ESE 9 14 1009.6 - 8.0 - Cloudy 10 - - - -
03/03:51am 25.8 ESE 8 11 1011.2 - 8.0 - Partly cloudy 10 - - - -
03/03:35am 26.0 SE 8 11 1011.3 - 7.6 - Partly cloudy 6 - - - -
03/03:30am 26.0 SE 8 11 1011.4 - 6.2 - Partly cloudy 10 - - - -
03/03:00am 25.9 ESE 8 12 1011.4 - 6.0 - Partly cloudy 10 - - - -
03/02:30am 26.0 SE 9 13 1011.4 - 6.0 - Partly cloudy 10 - - - -
03/02:00am 25.7 SE 8 11 1011.7 - 6.0 - Partly cloudy 10 - - - -
03/01:30am 25.9 SE 9 12 1012.4 - 6.0 - Cloudy 7 - - - -
03/01:00am 25.6 SE 6 8 1011.2 - 6.0 - Cloudy 10 - - - -
03/12:51am 25.3 SE 6 8 1012.9 - 6.0 - Partly cloudy 10 - - - -
03/12:30am 25.0 E 6 9 1013.2 - 6.0 - - 10 - - - -
03/12:07am 24.9 ESE 7 10 1013.5 - 6.0 - Partly cloudy 10 - - - -
03/12:00am 25.1 ESE 6 10 1013.6 - 6.0 - Partly cloudy 10 - - - -
 
Date/Time
WST
Temp

°C
Wind Pressure Rain
since 9am
mm
Weather Cloud Vis
km
Sea
Height
m
Swell
Dir
 
Speed
knots
Gust
knots
hPa Trend Height
m
Period
s
Dir
02/11:57pm 25.0 ESE 6 9 1013.7 - 6.0 - Partly cloudy 10 - - - -
02/11:37pm 25.1 E 7 11 1013.8 - 6.0 - Partly cloudy 6 - - - -
02/11:30pm 25.1 E 9 13 1013.8 - 6.0 - Partly cloudy 7 - - - -
02/11:17pm 24.9 E 7 11 1013.9 - 6.0 - Partly cloudy 9 - - - -
02/11:00pm 25.1 ESE 9 11 1013.7 - 5.6 - Cloudy 5 - - - -
02/10:39pm 25.1 E 11 16 1013.8 - 5.6 - Partly cloudy 6 - - - -
02/10:30pm 24.9 ENE 11 16 1013.9 - 5.6 - Partly cloudy 9 - - - -
02/10:00pm 24.7 ENE 13 20 1012.7 - 5.6 - Cloudy 10 - - - -
02/09:37pm 25.7 ESE 11 15 1013.9 - 5.6 - Partly cloudy 10 - - - -
02/09:30pm 25.5 ESE 11 18 1013.8 - 5.6 - Partly cloudy 8 - - - -
02/09:19pm 25.5 ESE 10 13 1013.7 - 5.4 - Partly cloudy 1 - - - -
02/09:14pm 25.6 ESE 9 13 1013.7 - 5.4 - Partly cloudy 0.3 - - - -
02/09:12pm 25.6 ESE 8 13 1013.7 - 5.4 - Cloudy 0.2 - - - -
02/09:11pm 25.6 ESE 8 13 1013.7 - 5.4 - Cloudy 0.2 - - - -
02/09:08pm 25.6 ESE 8 13 1013.7 - 5.4 - Partly cloudy 0.2 - - - -
02/09:00pm 25.5 E 8 11 1013.8 - 4.8 - Partly cloudy 0.1 - - - -
02/08:52pm 25.2 NE 9 13 1013.7 - 4.0 - Partly cloudy 0.5 - - - -
02/08:30pm 25.0 NE 11 15 1013.5 - 2.2 - Partly cloudy 0.3 - - - -
02/08:29pm 25.1 NE 11 15 1013.4 - 1.8 - Partly cloudy 0.3 - - - -
02/08:25pm 25.3 NE 11 15 1013.3 - 1.8 - Partly cloudy 3 - - - -
02/08:24pm 25.4 NE 11 15 1013.2 - 1.6 - Partly cloudy 5 - - - -
02/08:15pm 26.1 E 9 14 1013.1 - 1.4 - Partly cloudy 10 - - - -
02/08:00pm 25.8 E 7 11 1012.8 - 1.0 - Partly cloudy 8 - - - -
02/07:30pm 26.1 ESE 11 16 1012.6 - 0.0 - Partly cloudy 10 - - - -
02/07:00pm 26.6 ESE 10 13 1010.6 - 0.0 - Cloudy 10 - - - -
02/06:30pm 26.3 SE 9 12 1012.2 - 0.0 - Partly cloudy 10 - - - -
02/06:21pm 26.3 SE 6 9 1012.3 - 0.0 - Partly cloudy 10 - - - -
02/06:16pm 26.3 SE 6 8 1012.3 - 0.0 - Partly cloudy 10 - - - -
02/06:00pm 25.7 ESE 8 12 1011.8 - 0.0 - Partly cloudy 10 - - - -
02/05:30pm 26.7 ESE 10 16 1011.5 - 0.0 - Partly cloudy 10 - - - -
02/05:00pm 26.7 ESE 8 16 1011.2 - 0.0 - Cloudy 10 - - - -
02/04:30pm 26.7 ESE 11 15 1011.2 - 0.0 - Cloudy 10 - - - -
02/04:00pm 26.7 SE 9 16 1009.4 - 0.0 - Cloudy 10 - - - -
02/03:30pm 26.9 SE 11 16 1010.8 - 0.0 - Partly cloudy 10 - - - -
02/03:00pm 27.2 SE 12 17 1011.0 - 0.0 - Partly cloudy 10 - - - -
02/02:30pm 27.2 ESE 11 15 1011.5 - 0.0 - Cloudy 10 - - - -
02/02:00pm 27.3 ESE 10 14 1012.2 - 0.0 - Partly cloudy 10 - - - -
02/01:30pm 27.0 ESE 11 15 1012.5 - 0.0 - Partly cloudy 10 - - - -
02/01:00pm 27.3 ESE 10 15 1011.2 - 0.0 - Cloudy 10 - - - -
02/12:30pm 27.4 E 10 14 1013.3 - 0.0 - Cloudy 10 - - - -
02/12:00pm 27.3 ESE 10 14 1013.7 - 0.0 - Cloudy 10 - - - -
02/11:30am 26.8 ESE 10 15 1014.0 - 0.0 - Cloudy 10 - - - -
02/11:00am 26.8 ESE 10 16 1014.4 - 0.0 - Partly cloudy 10 - - - -
02/10:30am 26.9 ESE 12 17 1014.5 - 0.0 - Partly cloudy 10 - - - -
02/10:00am 26.9 ESE 11 16 1012.9 - 85.2 - Mostly cloudy 10 - - - -
02/09:30am 26.6 ESE 10 17 1014.4 - 85.2 - Partly cloudy 10 - - - -
02/09:14am 26.2 ESE 10 16 1014.2 - 85.2 - Partly cloudy 10 - - - -
02/09:00am 25.9 ESE 10 14 1014.0 - 85.2 - Partly cloudy 3 - - - -
02/08:30am 25.8 SE 11 17 1014.1 - 84.4 - Partly cloudy 6 - - - -
02/08:00am 26.1 ESE 10 14 1013.9 - 82.8 - Partly cloudy 10 - - - -
02/07:30am 25.8 E 9 13 1013.1 - 82.8 - Cloudy 10 - - - -
02/07:00am 25.6 SE 11 18 1010.9 - 82.8 - Cloudy 10 - - - -
02/06:30am 25.7 ESE 11 15 1012.4 - 82.8 - Partly cloudy 10 - - - -
02/06:00am 25.5 SE 9 14 1011.8 - 82.8 - Partly cloudy 10 - - - -
02/05:57am 25.4 SE 9 14 1011.8 - 82.8 - Partly cloudy 10 - - - -
02/05:56am 25.4 SE 9 13 1011.8 - 82.8 - Partly cloudy 10 - - - -
02/05:30am 25.3 SE 12 19 1011.6 - 79.8 - Partly cloudy 4 - - - -
02/05:11am 25.5 ESE 10 15 1011.5 - 74.6 - Partly cloudy 5 - - - -
02/05:00am 25.3 SE 9 13 1011.2 - 72.4 - Partly cloudy 10 - - - -
02/04:55am 25.4 SE 9 13 1011.3 - 72.4 - Partly cloudy 10 - - - -
02/04:30am 25.0 SE 8 12 1011.6 - 69.4 - Partly cloudy 3 - - - -
02/04:02am 25.1 S 6 9 1011.5 - 57.0 - Partly cloudy 6 - - - -
02/04:00am 25.2 S 6 8 1009.9 - 57.0 - Cloudy 7 - - - -
02/03:30am 25.0 SE 10 14 1011.8 - 57.0 - Partly cloudy 10 - - - -
02/03:00am 25.7 SE 10 14 1012.2 - 57.0 - Partly cloudy 10 - - - -
02/02:32am 25.1 SE 6 10 1012.3 - 57.0 - Partly cloudy 10 - - - -
02/02:30am 25.0 SE 6 9 1012.4 - 57.0 - Partly cloudy 10 - - - -
02/02:07am 25.5 SE 8 14 1012.8 - 48.8 - Partly cloudy 6 - - - -
02/02:00am 25.4 SE 8 13 1012.6 - 47.8 - Partly cloudy 10 - - - -
02/01:30am 25.1 SE 8 11 1013.1 - 47.8 - Partly cloudy 10 - - - -
02/01:11am 25.4 SE 8 11 1013.4 - 47.8 - Partly cloudy 10 - - - -
02/01:10am 25.4 SE 8 11 1013.4 - 47.8 - Partly cloudy 10 - - - -
02/01:00am 25.0 SE 7 10 1011.9 - 47.8 - Cloudy 10 - - - -
02/12:47am 24.7 SE 6 9 1013.4 - 47.8 - Partly cloudy 10 - - - -
02/12:30am 24.5 SE 7 10 1013.5 - 47.8 - Partly cloudy 10 - - - -
02/12:08am 24.6 SE 7 10 1014.0 - 47.8 - Partly cloudy 9 - - - -
02/12:07am 24.6 SE 7 10 1014.0 - 47.8 - Partly cloudy 9 - - - -
02/12:00am 24.6 ESE 9 15 1014.1 - 47.8 - Partly cloudy 9 - - - -
 
Date/Time
WST
Temp

°C
Wind Pressure Rain
since 9am
mm
Weather Cloud Vis
km
Sea
Height
m
Swell
Dir
 
Speed
knots
Gust
knots
hPa Trend Height
m
Period
s
Dir
01/11:30pm 24.4 SSE 6 12 1014.2 - 47.8 - Partly cloudy 3 - - - -
01/11:09pm 24.5 S 5 7 1014.1 - 43.0 - Partly cloudy 2 - - - -
01/11:03pm 24.2 SSE 4 7 1014.1 - 42.6 - Partly cloudy 10 - - - -
01/11:00pm 24.2 SSE 5 9 1014.1 - 42.6 - Partly cloudy 10 - - - -
01/10:30pm 24.6 E 11 15 1014.2 - 36.0 - Partly cloudy 5 - - - -
01/10:28pm 24.6 SE 11 17 1014.2 - 35.2 - Partly cloudy 6 - - - -
01/10:26pm 24.9 SSE 5 11 1014.0 - 34.0 - Partly cloudy 10 - - - -
01/10:00pm 25.0 SSE 6 9 1012.3 - 33.8 - Mostly cloudy 5 - - - -
01/09:51pm 25.1 SE 7 10 1013.9 - 33.8 - Partly cloudy 6 - - - -
01/09:45pm 25.1 ESE 6 9 1014.0 - 33.4 - Partly cloudy 9 - - - -
01/09:30pm 24.7 E 9 13 1013.9 - 33.4 - Partly cloudy 4 - - - -
01/09:19pm 24.8 SE 6 10 1013.9 - 30.8 - Partly cloudy 6 - - - -
01/09:00pm 24.4 SSE 5 7 1013.3 - 29.8 - Partly cloudy 8 - - - -
01/08:35pm 24.1 SE 4 6 1013.5 - 29.4 - Partly cloudy 8 - - - -
01/08:30pm 24.0 SE 4 6 1013.5 - 29.2 - Partly cloudy 8 - - - -
01/08:16pm 23.9 SE 5 7 1013.0 - 29.2 - Partly cloudy 8 - - - -
01/08:08pm 23.7 SE 3 6 1013.0 - 29.0 - Partly cloudy 7 - - - -
01/08:00pm 23.6 SE 4 7 1013.1 - 28.6 - Partly cloudy 8 - - - -
01/07:30pm 23.8 E 9 15 1013.1 - 26.8 - Partly cloudy 2 - - - -
01/07:00pm 24.0 SE 10 13 1010.4 - 18.4 - Cloudy 2 - - - -
01/06:40pm 25.9 ESE 9 13 1012.2 - 8.6 - Partly cloudy 5 - - - -
01/06:30pm 25.8 SE 9 13 1011.8 - 6.8 - Partly cloudy 10 - - - -
01/06:16pm 25.5 SE 6 11 1011.7 - 6.8 - Partly cloudy 10 - - - -
01/06:00pm 24.2 SSE 7 13 - - 6.4 - Partly cloudy - - - - -
01/05:52pm 25.5 ENE 12 16 1011.8 - 1.6 - Partly cloudy 6 - - - -
01/05:30pm 26.3 ESE 13 18 1011.3 - 0.2 - Cloudy 9 - - - -
01/05:00pm 26.7 ESE 10 16 1011.2 - 0.0 - Partly cloudy 10 - - - -
01/04:30pm 26.8 ESE 10 14 1010.9 - 0.0 - Cloudy 10 - - - -
01/04:00pm 27.0 E 9 17 1009.3 - 0.0 - Cloudy 10 - - - -
01/03:30pm 27.0 ESE 9 16 1010.6 - 0.0 - Partly cloudy 10 - - - -
01/03:00pm 26.7 ESE 11 17 1010.8 - 0.0 - Partly cloudy 10 - - - -
01/02:30pm 27.4 ESE 10 14 1011.1 - 0.0 - Partly cloudy 10 - - - -
01/02:00pm 27.5 ESE 10 16 1011.1 - 0.0 - Cloudy 10 - - - -
01/01:30pm 26.9 E 9 17 1011.4 - 0.0 - Cloudy 10 - - - -
01/01:00pm 26.8 ESE 11 18 1010.6 - 0.0 - Cloudy 10 - - - -
01/12:30pm 27.3 ESE 13 18 1012.7 - 0.0 - Partly cloudy 10 - - - -
01/12:00pm 27.2 ESE 13 18 1013.1 - 0.0 - Partly cloudy 10 - - - -
01/11:46am 27.2 ESE 12 17 1013.2 - 0.0 - Partly cloudy 10 - - - -
01/11:39am 26.8 ESE 13 19 1013.2 - 0.0 - Partly cloudy 10 - - - -
01/11:30am 26.5 ESE 13 20 1013.2 - 0.0 - Partly cloudy 10 - - - -
01/11:00am 26.2 ESE 14 21 1013.4 - 0.0 - Cloudy 10 - - - -
01/10:30am 26.3 SE 14 19 1013.5 - 0.0 - Cloudy 10 - - - -
01/10:00am 26.2 SE 13 19 1012.1 - 3.2 - Cloudy 10 - - - -
01/09:30am 26.4 ESE 11 14 1013.7 - 3.2 - Cloudy 10 - - - -
01/09:07am 25.1 ESE 7 10 1014.0 - 3.2 - Partly cloudy 10 - - - -
01/09:02am 24.9 ESE 8 10 1014.0 - 3.2 - Partly cloudy 10 - - - -
01/09:00am 24.7 ESE 8 12 1013.9 - 3.2 - Partly cloudy 10 - - - -
01/08:30am 25.4 E 12 15 1013.9 - 3.0 - Partly cloudy 10 - - - -
01/08:00am 26.0 SE 11 16 1013.6 - 3.0 - Partly cloudy 10 - - - -
01/07:30am 26.0 SE 11 18 1013.1 - 3.0 - Partly cloudy 10 - - - -
01/07:00am 25.9 ESE 11 16 1011.2 - 3.0 - Cloudy 10 - - - -
01/06:30am 25.7 ESE 9 15 1012.8 - 3.0 - Partly cloudy 10 - - - -
01/06:00am 25.8 ESE 10 15 1012.3 - 3.0 - Partly cloudy 10 - - - -
01/05:30am 25.5 ESE 10 16 1011.8 - 3.0 - Partly cloudy 10 - - - -
01/05:00am 24.7 SE 9 13 1011.8 - 3.0 - Partly cloudy 10 - - - -
01/04:30am 25.5 ESE 13 19 1011.7 - 3.0 - Partly cloudy 10 - - - -
01/04:00am 25.9 ESE 11 16 1010.5 - 2.6 - Cloudy 10 - - - -
01/03:30am 25.5 SE 11 15 1012.2 - 2.6 - Partly cloudy 10 - - - -
01/03:00am 25.6 SE 9 13 1012.1 - 2.6 - Partly cloudy 10 - - - -
01/02:30am 25.6 SE 10 15 1012.4 - 2.6 - Partly cloudy 10 - - - -
01/02:00am 25.5 SE 11 16 1012.6 - 2.6 - Partly cloudy 10 - - - -
01/01:30am 25.9 SE 11 16 1013.0 - 2.6 - Partly cloudy 10 - - - -
01/01:24am 25.8 SE 10 14 1013.1 - 2.6 - Partly cloudy 10 - - - -

Other Formats:

Comma delimited format used in spreadsheet applications
http://www.bom.gov.au/fwo/IDW60701/IDW60701.96995.axf

JavaScript Object Notation format (JSON) in row-major order
http://www.bom.gov.au/fwo/IDW60701/IDW60701.96995.json